sensor_id;sensor_type;location;lat;lon;timestamp;temperature;humidity
7562;DHT22;3822;48.784;9.174;2022-07-23T00:00:56;28.20;52.20
7562;DHT22;3822;48.784;9.174;2022-07-23T00:03:22;28.20;52.30
7562;DHT22;3822;48.784;9.174;2022-07-23T00:05:49;28.10;52.30
7562;DHT22;3822;48.784;9.174;2022-07-23T00:08:16;28.10;52.50
7562;DHT22;3822;48.784;9.174;2022-07-23T00:10:42;28.00;52.60
7562;DHT22;3822;48.784;9.174;2022-07-23T00:13:09;28.00;52.90
7562;DHT22;3822;48.784;9.174;2022-07-23T00:15:36;27.90;53.10
7562;DHT22;3822;48.784;9.174;2022-07-23T00:18:03;27.80;53.10
7562;DHT22;3822;48.784;9.174;2022-07-23T00:20:29;27.80;53.30
7562;DHT22;3822;48.784;9.174;2022-07-23T00:22:56;27.70;53.40
7562;DHT22;3822;48.784;9.174;2022-07-23T00:25:23;27.70;53.50
7562;DHT22;3822;48.784;9.174;2022-07-23T00:27:50;27.60;53.60
7562;DHT22;3822;48.784;9.174;2022-07-23T00:30:16;27.60;53.80
7562;DHT22;3822;48.784;9.174;2022-07-23T00:32:51;27.50;53.90
7562;DHT22;3822;48.784;9.174;2022-07-23T00:35:20;27.40;54.20
7562;DHT22;3822;48.784;9.174;2022-07-23T00:37:48;27.40;54.50
7562;DHT22;3822;48.784;9.174;2022-07-23T00:40:15;27.30;54.60
7562;DHT22;3822;48.784;9.174;2022-07-23T00:42:42;27.30;54.80
7562;DHT22;3822;48.784;9.174;2022-07-23T00:45:09;27.20;55.20
7562;DHT22;3822;48.784;9.174;2022-07-23T00:47:36;27.30;56.00
7562;DHT22;3822;48.784;9.174;2022-07-23T00:50:04;27.20;56.40
7562;DHT22;3822;48.784;9.174;2022-07-23T00:52:32;27.20;56.70
7562;DHT22;3822;48.784;9.174;2022-07-23T00:54:59;27.10;57.10
7562;DHT22;3822;48.784;9.174;2022-07-23T00:57:26;27.00;57.80
7562;DHT22;3822;48.784;9.174;2022-07-23T00:59:53;26.90;58.10
7562;DHT22;3822;48.784;9.174;2022-07-23T01:02:19;26.80;58.60
7562;DHT22;3822;48.784;9.174;2022-07-23T01:04:46;26.70;59.10
7562;DHT22;3822;48.784;9.174;2022-07-23T01:07:12;26.60;59.30
7562;DHT22;3822;48.784;9.174;2022-07-23T01:09:40;26.50;59.30
7562;DHT22;3822;48.784;9.174;2022-07-23T01:12:07;26.50;59.70
7562;DHT22;3822;48.784;9.174;2022-07-23T01:14:34;26.40;59.80
7562;DHT22;3822;48.784;9.174;2022-07-23T01:17:00;26.30;60.00
7562;DHT22;3822;48.784;9.174;2022-07-23T01:19:27;26.20;60.20
7562;DHT22;3822;48.784;9.174;2022-07-23T01:21:56;26.20;60.40
7562;DHT22;3822;48.784;9.174;2022-07-23T01:24:24;26.10;60.30
7562;DHT22;3822;48.784;9.174;2022-07-23T01:26:51;26.20;60.50
7562;DHT22;3822;48.784;9.174;2022-07-23T01:29:17;26.20;60.80
7562;DHT22;3822;48.784;9.174;2022-07-23T01:31:44;26.20;61.10
7562;DHT22;3822;48.784;9.174;2022-07-23T01:34:11;26.20;61.30
7562;DHT22;3822;48.784;9.174;2022-07-23T01:36:38;26.20;61.30
7562;DHT22;3822;48.784;9.174;2022-07-23T01:39:06;26.20;61.40
7562;DHT22;3822;48.784;9.174;2022-07-23T01:41:33;26.10;61.40
7562;DHT22;3822;48.784;9.174;2022-07-23T01:44:00;26.20;61.50
7562;DHT22;3822;48.784;9.174;2022-07-23T01:46:27;26.20;61.40
7562;DHT22;3822;48.784;9.174;2022-07-23T01:48:54;26.20;61.50
7562;DHT22;3822;48.784;9.174;2022-07-23T01:51:21;26.20;61.80
7562;DHT22;3822;48.784;9.174;2022-07-23T01:53:47;26.20;61.90
7562;DHT22;3822;48.784;9.174;2022-07-23T01:56:14;26.20;61.80
7562;DHT22;3822;48.784;9.174;2022-07-23T01:58:41;26.20;61.90
7562;DHT22;3822;48.784;9.174;2022-07-23T02:01:07;26.20;61.90
7562;DHT22;3822;48.784;9.174;2022-07-23T02:03:34;26.20;61.90
7562;DHT22;3822;48.784;9.174;2022-07-23T02:06:00;26.20;61.90
7562;DHT22;3822;48.784;9.174;2022-07-23T02:08:27;26.20;62.00
7562;DHT22;3822;48.784;9.174;2022-07-23T02:10:53;26.20;62.10
7562;DHT22;3822;48.784;9.174;2022-07-23T02:13:20;26.20;62.10
7562;DHT22;3822;48.784;9.174;2022-07-23T02:15:47;26.20;62.10
7562;DHT22;3822;48.784;9.174;2022-07-23T02:18:14;26.20;62.10
7562;DHT22;3822;48.784;9.174;2022-07-23T02:20:41;26.20;62.10
7562;DHT22;3822;48.784;9.174;2022-07-23T02:23:08;26.20;62.10
7562;DHT22;3822;48.784;9.174;2022-07-23T02:25:35;26.20;62.10
7562;DHT22;3822;48.784;9.174;2022-07-23T02:28:01;26.20;62.10
7562;DHT22;3822;48.784;9.174;2022-07-23T02:30:28;26.20;62.20
7562;DHT22;3822;48.784;9.174;2022-07-23T02:32:55;26.20;62.40
7562;DHT22;3822;48.784;9.174;2022-07-23T02:35:22;26.20;62.60
7562;DHT22;3822;48.784;9.174;2022-07-23T02:37:48;26.20;62.70
7562;DHT22;3822;48.784;9.174;2022-07-23T02:40:15;26.20;62.90
7562;DHT22;3822;48.784;9.174;2022-07-23T02:42:41;26.20;63.00
7562;DHT22;3822;48.784;9.174;2022-07-23T02:45:08;26.20;63.10
7562;DHT22;3822;48.784;9.174;2022-07-23T02:47:35;26.20;63.30
7562;DHT22;3822;48.784;9.174;2022-07-23T02:50:02;26.20;63.20
7562;DHT22;3822;48.784;9.174;2022-07-23T02:52:31;26.20;63.20
7562;DHT22;3822;48.784;9.174;2022-07-23T02:54:57;26.20;63.20
7562;DHT22;3822;48.784;9.174;2022-07-23T02:57:24;26.20;63.30
7562;DHT22;3822;48.784;9.174;2022-07-23T02:59:50;26.20;63.40
7562;DHT22;3822;48.784;9.174;2022-07-23T03:02:17;26.10;63.40
7562;DHT22;3822;48.784;9.174;2022-07-23T03:04:43;26.10;63.60
7562;DHT22;3822;48.784;9.174;2022-07-23T03:07:10;26.00;63.70
7562;DHT22;3822;48.784;9.174;2022-07-23T03:09:36;26.00;63.80
7562;DHT22;3822;48.784;9.174;2022-07-23T03:12:03;26.00;64.10
7562;DHT22;3822;48.784;9.174;2022-07-23T03:14:30;26.00;64.30
7562;DHT22;3822;48.784;9.174;2022-07-23T03:16:56;26.00;64.40
7562;DHT22;3822;48.784;9.174;2022-07-23T03:19:23;26.00;64.60
7562;DHT22;3822;48.784;9.174;2022-07-23T03:21:49;26.00;64.70
7562;DHT22;3822;48.784;9.174;2022-07-23T03:24:16;25.90;64.80
7562;DHT22;3822;48.784;9.174;2022-07-23T03:26:44;25.90;64.80
7562;DHT22;3822;48.784;9.174;2022-07-23T03:29:11;25.90;64.90
7562;DHT22;3822;48.784;9.174;2022-07-23T03:31:37;25.90;65.10
7562;DHT22;3822;48.784;9.174;2022-07-23T03:34:04;25.90;65.10
7562;DHT22;3822;48.784;9.174;2022-07-23T03:36:30;25.90;65.10
7562;DHT22;3822;48.784;9.174;2022-07-23T03:38:57;25.90;65.20
7562;DHT22;3822;48.784;9.174;2022-07-23T03:41:23;25.90;65.20
7562;DHT22;3822;48.784;9.174;2022-07-23T03:43:50;25.90;65.30
7562;DHT22;3822;48.784;9.174;2022-07-23T03:46:16;25.90;65.40
7562;DHT22;3822;48.784;9.174;2022-07-23T03:48:43;25.90;65.30
7562;DHT22;3822;48.784;9.174;2022-07-23T03:51:09;25.90;65.20
7562;DHT22;3822;48.784;9.174;2022-07-23T03:53:36;25.90;65.20
7562;DHT22;3822;48.784;9.174;2022-07-23T03:56:02;25.90;65.30
7562;DHT22;3822;48.784;9.174;2022-07-23T03:58:29;25.80;65.30
7562;DHT22;3822;48.784;9.174;2022-07-23T04:00:55;25.80;65.50
7562;DHT22;3822;48.784;9.174;2022-07-23T04:03:22;25.80;65.50
7562;DHT22;3822;48.784;9.174;2022-07-23T04:05:48;25.80;65.50
7562;DHT22;3822;48.784;9.174;2022-07-23T04:08:15;25.80;65.60
7562;DHT22;3822;48.784;9.174;2022-07-23T04:10:41;25.80;65.50
7562;DHT22;3822;48.784;9.174;2022-07-23T04:13:09;25.80;65.50
7562;DHT22;3822;48.784;9.174;2022-07-23T04:15:35;25.80;65.50
7562;DHT22;3822;48.784;9.174;2022-07-23T04:18:03;25.80;65.50
7562;DHT22;3822;48.784;9.174;2022-07-23T04:20:30;25.80;65.50
7562;DHT22;3822;48.784;9.174;2022-07-23T04:22:56;25.70;65.60
7562;DHT22;3822;48.784;9.174;2022-07-23T04:25:23;25.70;65.70
7562;DHT22;3822;48.784;9.174;2022-07-23T04:27:49;25.70;65.90
7562;DHT22;3822;48.784;9.174;2022-07-23T04:30:16;25.70;66.10
7562;DHT22;3822;48.784;9.174;2022-07-23T04:32:42;25.70;66.20
7562;DHT22;3822;48.784;9.174;2022-07-23T04:35:09;25.60;66.40
7562;DHT22;3822;48.784;9.174;2022-07-23T04:37:35;25.50;66.40
7562;DHT22;3822;48.784;9.174;2022-07-23T04:40:02;25.50;66.60
7562;DHT22;3822;48.784;9.174;2022-07-23T04:42:29;25.50;66.70
7562;DHT22;3822;48.784;9.174;2022-07-23T04:44:55;25.50;66.80
7562;DHT22;3822;48.784;9.174;2022-07-23T04:47:22;25.40;66.90
7562;DHT22;3822;48.784;9.174;2022-07-23T04:49:48;25.40;67.00
7562;DHT22;3822;48.784;9.174;2022-07-23T04:52:15;25.40;67.00
7562;DHT22;3822;48.784;9.174;2022-07-23T04:54:42;25.50;67.20
7562;DHT22;3822;48.784;9.174;2022-07-23T04:57:08;25.50;67.30
7562;DHT22;3822;48.784;9.174;2022-07-23T04:59:35;25.50;67.20
7562;DHT22;3822;48.784;9.174;2022-07-23T05:02:01;25.50;67.30
7562;DHT22;3822;48.784;9.174;2022-07-23T05:04:28;25.50;67.10
7562;DHT22;3822;48.784;9.174;2022-07-23T05:06:54;25.50;67.10
7562;DHT22;3822;48.784;9.174;2022-07-23T05:09:21;25.50;67.20
7562;DHT22;3822;48.784;9.174;2022-07-23T05:11:47;25.50;67.10
7562;DHT22;3822;48.784;9.174;2022-07-23T05:14:13;25.50;67.10
7562;DHT22;3822;48.784;9.174;2022-07-23T05:16:40;25.50;67.30
7562;DHT22;3822;48.784;9.174;2022-07-23T05:19:07;25.50;67.30
7562;DHT22;3822;48.784;9.174;2022-07-23T05:21:33;25.50;67.40
7562;DHT22;3822;48.784;9.174;2022-07-23T05:24:00;25.50;67.40
7562;DHT22;3822;48.784;9.174;2022-07-23T05:26:26;25.50;67.40
7562;DHT22;3822;48.784;9.174;2022-07-23T05:28:53;25.60;67.50
7562;DHT22;3822;48.784;9.174;2022-07-23T05:31:19;25.60;67.50
7562;DHT22;3822;48.784;9.174;2022-07-23T05:33:46;25.60;67.60
7562;DHT22;3822;48.784;9.174;2022-07-23T05:36:12;25.60;67.50
7562;DHT22;3822;48.784;9.174;2022-07-23T05:38:39;25.70;67.60
7562;DHT22;3822;48.784;9.174;2022-07-23T05:41:05;25.70;67.50
7562;DHT22;3822;48.784;9.174;2022-07-23T05:43:32;25.70;67.40
7562;DHT22;3822;48.784;9.174;2022-07-23T05:45:58;25.70;67.30
7562;DHT22;3822;48.784;9.174;2022-07-23T05:48:25;25.70;67.30
7562;DHT22;3822;48.784;9.174;2022-07-23T05:50:51;25.80;67.30
7562;DHT22;3822;48.784;9.174;2022-07-23T05:53:18;25.80;67.40
7562;DHT22;3822;48.784;9.174;2022-07-23T05:55:44;25.80;67.50
7562;DHT22;3822;48.784;9.174;2022-07-23T05:58:11;25.80;67.50
7562;DHT22;3822;48.784;9.174;2022-07-23T06:00:37;25.80;67.30
7562;DHT22;3822;48.784;9.174;2022-07-23T06:03:04;25.80;67.00
7562;DHT22;3822;48.784;9.174;2022-07-23T06:05:30;25.90;67.60
7562;DHT22;3822;48.784;9.174;2022-07-23T06:07:57;25.80;66.80
7562;DHT22;3822;48.784;9.174;2022-07-23T06:10:23;25.90;66.80
7562;DHT22;3822;48.784;9.174;2022-07-23T06:12:50;25.80;66.70
7562;DHT22;3822;48.784;9.174;2022-07-23T06:15:16;25.80;66.70
7562;DHT22;3822;48.784;9.174;2022-07-23T06:17:43;25.90;66.70
7562;DHT22;3822;48.784;9.174;2022-07-23T06:20:10;25.90;66.90
7562;DHT22;3822;48.784;9.174;2022-07-23T06:22:37;25.90;67.00
7562;DHT22;3822;48.784;9.174;2022-07-23T06:25:04;25.90;67.00
7562;DHT22;3822;48.784;9.174;2022-07-23T06:27:31;25.80;67.30
7562;DHT22;3822;48.784;9.174;2022-07-23T06:29:57;25.80;67.30
7562;DHT22;3822;48.784;9.174;2022-07-23T06:32:24;25.90;67.60
7562;DHT22;3822;48.784;9.174;2022-07-23T06:34:50;25.90;67.50
7562;DHT22;3822;48.784;9.174;2022-07-23T06:37:17;25.90;67.50
7562;DHT22;3822;48.784;9.174;2022-07-23T06:39:43;26.00;67.30
7562;DHT22;3822;48.784;9.174;2022-07-23T06:42:10;26.00;67.30
7562;DHT22;3822;48.784;9.174;2022-07-23T06:44:38;26.00;67.30
7562;DHT22;3822;48.784;9.174;2022-07-23T06:47:04;26.00;67.50
7562;DHT22;3822;48.784;9.174;2022-07-23T06:49:31;26.10;67.40
7562;DHT22;3822;48.784;9.174;2022-07-23T06:51:57;26.10;67.40
7562;DHT22;3822;48.784;9.174;2022-07-23T06:54:24;26.10;67.30
7562;DHT22;3822;48.784;9.174;2022-07-23T06:56:50;26.20;67.00
7562;DHT22;3822;48.784;9.174;2022-07-23T06:59:17;26.30;66.80
7562;DHT22;3822;48.784;9.174;2022-07-23T07:01:43;26.30;66.50
7562;DHT22;3822;48.784;9.174;2022-07-23T07:04:10;26.30;66.30
7562;DHT22;3822;48.784;9.174;2022-07-23T07:06:36;26.30;66.20
7562;DHT22;3822;48.784;9.174;2022-07-23T07:09:03;26.30;65.90
7562;DHT22;3822;48.784;9.174;2022-07-23T07:11:30;26.30;65.50
7562;DHT22;3822;48.784;9.174;2022-07-23T07:13:56;26.20;65.50
7562;DHT22;3822;48.784;9.174;2022-07-23T07:16:23;26.10;65.60
7562;DHT22;3822;48.784;9.174;2022-07-23T07:18:49;26.00;65.60
7562;DHT22;3822;48.784;9.174;2022-07-23T07:21:16;26.00;66.00
7562;DHT22;3822;48.784;9.174;2022-07-23T07:23:42;26.00;66.10
7562;DHT22;3822;48.784;9.174;2022-07-23T07:26:09;26.00;66.50
7562;DHT22;3822;48.784;9.174;2022-07-23T07:28:35;26.00;66.70
7562;DHT22;3822;48.784;9.174;2022-07-23T07:31:02;25.90;66.80
7562;DHT22;3822;48.784;9.174;2022-07-23T07:33:28;25.90;67.00
7562;DHT22;3822;48.784;9.174;2022-07-23T07:35:55;25.80;67.10
7562;DHT22;3822;48.784;9.174;2022-07-23T07:38:21;25.90;67.60
7562;DHT22;3822;48.784;9.174;2022-07-23T07:40:48;25.80;67.80
7562;DHT22;3822;48.784;9.174;2022-07-23T07:43:14;25.90;68.40
7562;DHT22;3822;48.784;9.174;2022-07-23T07:45:41;25.80;69.10
7562;DHT22;3822;48.784;9.174;2022-07-23T07:48:07;25.80;69.60
7562;DHT22;3822;48.784;9.174;2022-07-23T07:50:34;25.70;70.80
7562;DHT22;3822;48.784;9.174;2022-07-23T07:53:00;25.60;70.50
7562;DHT22;3822;48.784;9.174;2022-07-23T07:55:27;25.50;70.70
7562;DHT22;3822;48.784;9.174;2022-07-23T07:57:54;25.50;70.60
7562;DHT22;3822;48.784;9.174;2022-07-23T08:00:21;25.40;70.60
7562;DHT22;3822;48.784;9.174;2022-07-23T08:02:49;25.50;70.80
7562;DHT22;3822;48.784;9.174;2022-07-23T08:05:25;25.40;70.70
7562;DHT22;3822;48.784;9.174;2022-07-23T08:07:53;25.50;70.80
7562;DHT22;3822;48.784;9.174;2022-07-23T08:10:19;25.50;70.80
7562;DHT22;3822;48.784;9.174;2022-07-23T08:12:49;25.50;70.90
7562;DHT22;3822;48.784;9.174;2022-07-23T08:15:19;25.50;70.90
7562;DHT22;3822;48.784;9.174;2022-07-23T08:17:47;25.60;71.10
7562;DHT22;3822;48.784;9.174;2022-07-23T08:20:15;25.70;71.10
7562;DHT22;3822;48.784;9.174;2022-07-23T08:22:46;25.70;71.10
7562;DHT22;3822;48.784;9.174;2022-07-23T08:25:25;25.70;70.90
7562;DHT22;3822;48.784;9.174;2022-07-23T08:27:54;25.70;70.90
7562;DHT22;3822;48.784;9.174;2022-07-23T08:30:21;25.70;71.00
7562;DHT22;3822;48.784;9.174;2022-07-23T08:32:59;25.70;70.90
7562;DHT22;3822;48.784;9.174;2022-07-23T08:37:57;25.70;71.20
7562;DHT22;3822;48.784;9.174;2022-07-23T08:40:26;25.80;71.20
7562;DHT22;3822;48.784;9.174;2022-07-23T08:42:53;25.80;70.80
7562;DHT22;3822;48.784;9.174;2022-07-23T08:45:22;25.80;70.90
7562;DHT22;3822;48.784;9.174;2022-07-23T08:47:52;25.90;70.90
7562;DHT22;3822;48.784;9.174;2022-07-23T08:50:25;26.00;70.80
7562;DHT22;3822;48.784;9.174;2022-07-23T08:52:53;26.10;70.60
7562;DHT22;3822;48.784;9.174;2022-07-23T08:55:22;26.20;70.10
7562;DHT22;3822;48.784;9.174;2022-07-23T08:57:51;26.30;69.40
7562;DHT22;3822;48.784;9.174;2022-07-23T09:00:19;26.30;68.80
7562;DHT22;3822;48.784;9.174;2022-07-23T09:02:47;26.30;68.80
7562;DHT22;3822;48.784;9.174;2022-07-23T09:05:15;26.40;68.70
7562;DHT22;3822;48.784;9.174;2022-07-23T09:08:05;26.40;68.20
7562;DHT22;3822;48.784;9.174;2022-07-23T09:13:36;26.60;67.60
7562;DHT22;3822;48.784;9.174;2022-07-23T09:16:12;26.70;67.20
7562;DHT22;3822;48.784;9.174;2022-07-23T09:18:46;26.80;67.70
7562;DHT22;3822;48.784;9.174;2022-07-23T09:24:04;26.90;66.30
7562;DHT22;3822;48.784;9.174;2022-07-23T09:26:46;27.10;66.20
7562;DHT22;3822;48.784;9.174;2022-07-23T09:29:24;27.20;65.80
7562;DHT22;3822;48.784;9.174;2022-07-23T09:31:52;27.30;64.70
7562;DHT22;3822;48.784;9.174;2022-07-23T09:34:26;27.40;64.10
7562;DHT22;3822;48.784;9.174;2022-07-23T09:37:19;27.50;63.80
7562;DHT22;3822;48.784;9.174;2022-07-23T09:39:47;27.60;63.10
7562;DHT22;3822;48.784;9.174;2022-07-23T09:42:20;27.70;62.80
7562;DHT22;3822;48.784;9.174;2022-07-23T09:44:49;27.70;62.50
7562;DHT22;3822;48.784;9.174;2022-07-23T09:47:17;27.80;63.20
7562;DHT22;3822;48.784;9.174;2022-07-23T09:52:34;27.90;62.10
7562;DHT22;3822;48.784;9.174;2022-07-23T09:55:06;28.00;62.00
7562;DHT22;3822;48.784;9.174;2022-07-23T09:57:33;28.00;61.60
7562;DHT22;3822;48.784;9.174;2022-07-23T10:00:07;28.00;61.30
7562;DHT22;3822;48.784;9.174;2022-07-23T10:02:37;28.10;61.30
7562;DHT22;3822;48.784;9.174;2022-07-23T10:05:05;28.10;61.20
7562;DHT22;3822;48.784;9.174;2022-07-23T10:07:35;28.10;61.10
7562;DHT22;3822;48.784;9.174;2022-07-23T10:10:04;28.10;61.10
7562;DHT22;3822;48.784;9.174;2022-07-23T10:12:31;28.20;61.10
7562;DHT22;3822;48.784;9.174;2022-07-23T10:15:16;28.20;60.20
7562;DHT22;3822;48.784;9.174;2022-07-23T10:17:43;28.20;60.10
7562;DHT22;3822;48.784;9.174;2022-07-23T10:20:10;28.20;59.60
7562;DHT22;3822;48.784;9.174;2022-07-23T10:23:00;28.20;59.00
7562;DHT22;3822;48.784;9.174;2022-07-23T10:25:37;28.30;58.40
7562;DHT22;3822;48.784;9.174;2022-07-23T10:31:19;28.30;58.30
7562;DHT22;3822;48.784;9.174;2022-07-23T10:34:12;28.40;58.00
7562;DHT22;3822;48.784;9.174;2022-07-23T10:37:14;28.40;58.00
7562;DHT22;3822;48.784;9.174;2022-07-23T10:40:28;28.50;57.40
7562;DHT22;3822;48.784;9.174;2022-07-23T10:42:59;28.50;56.70
7562;DHT22;3822;48.784;9.174;2022-07-23T10:45:32;28.50;55.40
7562;DHT22;3822;48.784;9.174;2022-07-23T10:48:21;28.50;55.70
7562;DHT22;3822;48.784;9.174;2022-07-23T10:51:13;28.60;55.20
7562;DHT22;3822;48.784;9.174;2022-07-23T10:53:56;28.70;54.90
7562;DHT22;3822;48.784;9.174;2022-07-23T10:59:23;28.70;54.10
7562;DHT22;3822;48.784;9.174;2022-07-23T11:01:49;28.80;54.20
7562;DHT22;3822;48.784;9.174;2022-07-23T11:04:16;28.80;54.50
7562;DHT22;3822;48.784;9.174;2022-07-23T11:09:29;29.00;54.40
7562;DHT22;3822;48.784;9.174;2022-07-23T11:15:04;29.10;53.40
7562;DHT22;3822;48.784;9.174;2022-07-23T11:17:57;29.20;53.80
7562;DHT22;3822;48.784;9.174;2022-07-23T11:20:26;29.20;53.40
7562;DHT22;3822;48.784;9.174;2022-07-23T11:22:56;29.20;53.90
7562;DHT22;3822;48.784;9.174;2022-07-23T11:28:17;29.30;54.20
7562;DHT22;3822;48.784;9.174;2022-07-23T11:30:47;29.30;54.20
7562;DHT22;3822;48.784;9.174;2022-07-23T11:35:44;29.40;54.20
7562;DHT22;3822;48.784;9.174;2022-07-23T11:38:20;29.40;54.00
7562;DHT22;3822;48.784;9.174;2022-07-23T11:40:54;29.40;54.20
7562;DHT22;3822;48.784;9.174;2022-07-23T11:43:22;29.30;54.60
7562;DHT22;3822;48.784;9.174;2022-07-23T11:45:52;29.30;54.90
7562;DHT22;3822;48.784;9.174;2022-07-23T11:48:22;29.30;55.00
7562;DHT22;3822;48.784;9.174;2022-07-23T11:50:51;29.40;55.10
7562;DHT22;3822;48.784;9.174;2022-07-23T11:53:32;29.40;55.40
7562;DHT22;3822;48.784;9.174;2022-07-23T11:56:07;29.40;55.40
7562;DHT22;3822;48.784;9.174;2022-07-23T11:58:36;29.50;55.30
7562;DHT22;3822;48.784;9.174;2022-07-23T12:01:03;29.70;55.50
7562;DHT22;3822;48.784;9.174;2022-07-23T12:03:30;29.70;55.00
7562;DHT22;3822;48.784;9.174;2022-07-23T12:05:58;29.80;54.90
7562;DHT22;3822;48.784;9.174;2022-07-23T12:08:25;30.00;55.20
7562;DHT22;3822;48.784;9.174;2022-07-23T12:10:52;30.00;55.00
7562;DHT22;3822;48.784;9.174;2022-07-23T12:13:20;30.10;54.10
7562;DHT22;3822;48.784;9.174;2022-07-23T12:15:50;30.20;54.10
7562;DHT22;3822;48.784;9.174;2022-07-23T12:18:25;30.30;54.40
7562;DHT22;3822;48.784;9.174;2022-07-23T12:20:55;30.40;53.80
7562;DHT22;3822;48.784;9.174;2022-07-23T12:23:25;30.40;53.80
7562;DHT22;3822;48.784;9.174;2022-07-23T12:25:52;30.50;53.50
7562;DHT22;3822;48.784;9.174;2022-07-23T12:28:22;30.50;53.20
7562;DHT22;3822;48.784;9.174;2022-07-23T12:30:55;30.50;52.90
7562;DHT22;3822;48.784;9.174;2022-07-23T12:33:25;30.50;52.50
7562;DHT22;3822;48.784;9.174;2022-07-23T12:35:56;30.50;51.70
7562;DHT22;3822;48.784;9.174;2022-07-23T12:38:25;30.60;52.20
7562;DHT22;3822;48.784;9.174;2022-07-23T12:40:55;30.60;51.40
7562;DHT22;3822;48.784;9.174;2022-07-23T12:46:20;30.60;51.70
7562;DHT22;3822;48.784;9.174;2022-07-23T12:51:18;30.60;52.60
7562;DHT22;3822;48.784;9.174;2022-07-23T12:53:50;30.60;52.10
7562;DHT22;3822;48.784;9.174;2022-07-23T12:56:30;30.70;52.00
7562;DHT22;3822;48.784;9.174;2022-07-23T13:01:42;30.90;52.50
7562;DHT22;3822;48.784;9.174;2022-07-23T13:04:11;31.00;51.90
7562;DHT22;3822;48.784;9.174;2022-07-23T13:06:44;31.00;51.30
7562;DHT22;3822;48.784;9.174;2022-07-23T13:09:18;31.00;50.90
7562;DHT22;3822;48.784;9.174;2022-07-23T13:11:47;31.10;50.90
7562;DHT22;3822;48.784;9.174;2022-07-23T13:14:15;31.00;50.90
7562;DHT22;3822;48.784;9.174;2022-07-23T13:16:43;31.00;50.40
7562;DHT22;3822;48.784;9.174;2022-07-23T13:19:11;30.80;50.00
7562;DHT22;3822;48.784;9.174;2022-07-23T13:21:39;30.80;50.50
7562;DHT22;3822;48.784;9.174;2022-07-23T13:24:07;30.80;50.70
7562;DHT22;3822;48.784;9.174;2022-07-23T13:26:36;30.80;50.40
7562;DHT22;3822;48.784;9.174;2022-07-23T13:29:03;30.90;50.30
7562;DHT22;3822;48.784;9.174;2022-07-23T13:31:30;31.00;49.00
7562;DHT22;3822;48.784;9.174;2022-07-23T13:33:57;31.00;48.80
7562;DHT22;3822;48.784;9.174;2022-07-23T13:36:23;31.00;48.70
7562;DHT22;3822;48.784;9.174;2022-07-23T13:38:50;31.10;48.80
7562;DHT22;3822;48.784;9.174;2022-07-23T13:41:18;31.20;48.80
7562;DHT22;3822;48.784;9.174;2022-07-23T13:43:44;31.20;49.20
7562;DHT22;3822;48.784;9.174;2022-07-23T13:46:11;31.30;49.60
7562;DHT22;3822;48.784;9.174;2022-07-23T13:48:37;31.40;50.10
7562;DHT22;3822;48.784;9.174;2022-07-23T13:51:04;31.60;50.10
7562;DHT22;3822;48.784;9.174;2022-07-23T13:53:30;31.70;49.20
7562;DHT22;3822;48.784;9.174;2022-07-23T13:55:57;31.70;48.40
7562;DHT22;3822;48.784;9.174;2022-07-23T13:58:23;31.70;48.20
7562;DHT22;3822;48.784;9.174;2022-07-23T14:00:52;31.70;48.20
7562;DHT22;3822;48.784;9.174;2022-07-23T14:03:21;31.70;47.90
7562;DHT22;3822;48.784;9.174;2022-07-23T14:05:52;31.60;47.90
7562;DHT22;3822;48.784;9.174;2022-07-23T14:08:19;31.60;48.40
7562;DHT22;3822;48.784;9.174;2022-07-23T14:10:46;31.70;48.50
7562;DHT22;3822;48.784;9.174;2022-07-23T14:13:13;31.60;48.10
7562;DHT22;3822;48.784;9.174;2022-07-23T14:15:39;31.60;48.40
7562;DHT22;3822;48.784;9.174;2022-07-23T14:18:07;31.60;48.90
7562;DHT22;3822;48.784;9.174;2022-07-23T14:20:33;31.70;48.50
7562;DHT22;3822;48.784;9.174;2022-07-23T14:23:00;31.80;48.20
7562;DHT22;3822;48.784;9.174;2022-07-23T14:25:27;31.90;47.80
7562;DHT22;3822;48.784;9.174;2022-07-23T14:27:53;32.00;47.60
7562;DHT22;3822;48.784;9.174;2022-07-23T14:30:20;32.10;47.30
7562;DHT22;3822;48.784;9.174;2022-07-23T14:32:49;32.30;46.30
7562;DHT22;3822;48.784;9.174;2022-07-23T14:35:16;32.20;45.30
7562;DHT22;3822;48.784;9.174;2022-07-23T14:37:42;32.50;44.70
7562;DHT22;3822;48.784;9.174;2022-07-23T14:40:09;32.50;44.20
7562;DHT22;3822;48.784;9.174;2022-07-23T14:42:36;32.60;44.20
7562;DHT22;3822;48.784;9.174;2022-07-23T14:45:03;32.70;44.80
7562;DHT22;3822;48.784;9.174;2022-07-23T14:47:31;32.70;44.00
7562;DHT22;3822;48.784;9.174;2022-07-23T14:49:57;32.80;43.50
7562;DHT22;3822;48.784;9.174;2022-07-23T14:52:24;32.90;43.20
7562;DHT22;3822;48.784;9.174;2022-07-23T14:54:50;32.90;43.10
7562;DHT22;3822;48.784;9.174;2022-07-23T14:57:17;33.10;43.00
7562;DHT22;3822;48.784;9.174;2022-07-23T14:59:43;33.10;42.20
7562;DHT22;3822;48.784;9.174;2022-07-23T15:02:11;33.20;41.30
7562;DHT22;3822;48.784;9.174;2022-07-23T15:04:38;33.30;41.40
7562;DHT22;3822;48.784;9.174;2022-07-23T15:07:04;33.40;41.00
7562;DHT22;3822;48.784;9.174;2022-07-23T15:09:31;33.40;40.90
7562;DHT22;3822;48.784;9.174;2022-07-23T15:11:58;33.40;41.00
7562;DHT22;3822;48.784;9.174;2022-07-23T15:14:24;33.40;40.90
7562;DHT22;3822;48.784;9.174;2022-07-23T15:16:51;33.40;40.80
7562;DHT22;3822;48.784;9.174;2022-07-23T15:19:18;33.30;40.60
7562;DHT22;3822;48.784;9.174;2022-07-23T15:21:44;33.30;40.70
7562;DHT22;3822;48.784;9.174;2022-07-23T15:24:10;33.30;40.80
7562;DHT22;3822;48.784;9.174;2022-07-23T15:26:37;33.30;40.90
7562;DHT22;3822;48.784;9.174;2022-07-23T15:29:04;33.30;41.50
7562;DHT22;3822;48.784;9.174;2022-07-23T15:31:32;33.30;41.70
7562;DHT22;3822;48.784;9.174;2022-07-23T15:33:59;33.30;42.10
7562;DHT22;3822;48.784;9.174;2022-07-23T15:36:26;33.40;42.20
7562;DHT22;3822;48.784;9.174;2022-07-23T15:38:53;33.40;41.90
7562;DHT22;3822;48.784;9.174;2022-07-23T15:41:19;33.40;42.10
7562;DHT22;3822;48.784;9.174;2022-07-23T15:43:46;33.50;42.10
7562;DHT22;3822;48.784;9.174;2022-07-23T15:46:13;33.50;41.50
7562;DHT22;3822;48.784;9.174;2022-07-23T15:48:39;33.60;41.60
7562;DHT22;3822;48.784;9.174;2022-07-23T15:51:06;33.70;41.40
7562;DHT22;3822;48.784;9.174;2022-07-23T15:53:33;33.70;40.80
7562;DHT22;3822;48.784;9.174;2022-07-23T15:56:01;33.80;40.70
7562;DHT22;3822;48.784;9.174;2022-07-23T15:58:28;33.90;40.60
7562;DHT22;3822;48.784;9.174;2022-07-23T16:00:55;34.00;40.20
7562;DHT22;3822;48.784;9.174;2022-07-23T16:03:22;34.00;40.10
7562;DHT22;3822;48.784;9.174;2022-07-23T16:05:49;34.10;40.30
7562;DHT22;3822;48.784;9.174;2022-07-23T16:08:15;34.10;40.20
7562;DHT22;3822;48.784;9.174;2022-07-23T16:10:42;34.10;40.40
7562;DHT22;3822;48.784;9.174;2022-07-23T16:13:08;34.00;40.40
7562;DHT22;3822;48.784;9.174;2022-07-23T16:15:35;34.00;40.70
7562;DHT22;3822;48.784;9.174;2022-07-23T16:18:02;34.00;40.80
7562;DHT22;3822;48.784;9.174;2022-07-23T16:20:29;34.00;40.70
7562;DHT22;3822;48.784;9.174;2022-07-23T16:22:55;34.00;40.50
7562;DHT22;3822;48.784;9.174;2022-07-23T16:25:22;33.90;40.10
7562;DHT22;3822;48.784;9.174;2022-07-23T16:27:49;33.90;39.60
7562;DHT22;3822;48.784;9.174;2022-07-23T16:30:15;33.90;39.50
7562;DHT22;3822;48.784;9.174;2022-07-23T16:32:42;33.90;39.70
7562;DHT22;3822;48.784;9.174;2022-07-23T16:35:09;33.80;40.00
7562;DHT22;3822;48.784;9.174;2022-07-23T16:37:36;33.70;40.20
7562;DHT22;3822;48.784;9.174;2022-07-23T16:40:05;33.60;40.60
7562;DHT22;3822;48.784;9.174;2022-07-23T16:42:32;33.50;40.90
7562;DHT22;3822;48.784;9.174;2022-07-23T16:44:59;33.40;41.20